createdAt,value
2023-05-14T00:00:12.374Z,0.0000
2023-05-14T00:01:13.148Z,0.0000
2023-05-14T00:02:13.849Z,0.0000
2023-05-14T00:03:16.053Z,0.0000
2023-05-14T00:04:16.231Z,0.0000
2023-05-14T00:05:16.911Z,0.0000
2023-05-14T00:06:16.933Z,0.0000
2023-05-14T00:07:17.592Z,0.0000
2023-05-14T00:08:18.297Z,0.0000
2023-05-14T00:10:18.542Z,0.0000
2023-05-14T00:11:18.551Z,0.0000
2023-05-14T00:12:18.603Z,0.0000
2023-05-14T00:13:18.634Z,0.0000
2023-05-14T00:15:19.474Z,0.0000
2023-05-14T00:16:19.558Z,0.0000
2023-05-14T00:18:20.520Z,0.0000
2023-05-14T00:19:41.551Z,0.0000
2023-05-14T00:20:23.020Z,0.0000
2023-05-14T00:21:23.943Z,0.0000
2023-05-14T00:22:24.582Z,0.0000
2023-05-14T00:23:24.636Z,0.0000
2023-05-14T00:24:25.314Z,0.0000
2023-05-14T00:25:25.372Z,0.0000
2023-05-14T00:26:25.401Z,0.0000
2023-05-14T00:27:26.033Z,0.0000
2023-05-14T00:28:26.078Z,0.0000
2023-05-14T00:29:26.121Z,0.0000
2023-05-14T00:30:26.190Z,0.0000
2023-05-14T00:31:26.883Z,0.0000
2023-05-14T00:32:26.914Z,0.0000
2023-05-14T00:33:27.767Z,0.0000
2023-05-14T00:34:28.450Z,0.0000
2023-05-14T00:35:28.484Z,0.0000
2023-05-14T00:36:29.073Z,0.0000
2023-05-14T00:37:30.061Z,0.0000
2023-05-14T00:38:30.090Z,0.0000
2023-05-14T00:39:30.891Z,0.0000
2023-05-14T00:40:31.988Z,0.0000
2023-05-14T00:41:32.053Z,0.0000
2023-05-14T00:42:32.697Z,0.0000
2023-05-14T00:43:33.650Z,0.0000
2023-05-14T00:45:36.901Z,0.0000
2023-05-14T00:46:37.883Z,0.0000
2023-05-14T00:47:37.947Z,0.0000
2023-05-14T00:48:38.767Z,0.0000
2023-05-14T00:49:38.742Z,0.0000
2023-05-14T00:50:39.472Z,0.0000
2023-05-14T00:51:40.612Z,0.0000
2023-05-14T00:52:41.344Z,0.0000
2023-05-14T00:53:41.404Z,0.0000
2023-05-14T00:54:41.430Z,0.0000
2023-05-14T00:55:41.495Z,0.0000
2023-05-14T00:56:42.077Z,0.0000
2023-05-14T00:57:43.029Z,0.0000
2023-05-14T00:58:43.061Z,0.0000
2023-05-14T00:59:43.138Z,0.0000
2023-05-14T01:00:43.267Z,0.0000
2023-05-14T01:01:43.957Z,0.0000
2023-05-14T01:02:44.065Z,0.0000
2023-05-14T01:03:44.245Z,0.0000
2023-05-14T01:04:44.968Z,0.0000
2023-05-14T01:05:44.985Z,0.0000
2023-05-14T01:06:45.664Z,0.0000
2023-05-14T01:07:46.334Z,0.0000
2023-05-14T01:08:47.057Z,0.0000
2023-05-14T01:09:47.101Z,0.0000
2023-05-14T01:10:47.155Z,0.0000
2023-05-14T01:11:47.864Z,0.0000
2023-05-14T01:12:47.908Z,0.0000
2023-05-14T01:13:48.993Z,0.0000
2023-05-14T01:14:49.930Z,0.0000
2023-05-14T01:15:49.954Z,0.0000
2023-05-14T01:16:50.081Z,0.0000
2023-05-14T01:17:50.158Z,0.0000
2023-05-14T01:18:50.266Z,0.0000
2023-05-14T01:19:50.341Z,0.0000
2023-05-14T01:20:50.384Z,0.0000
2023-05-14T01:21:50.427Z,0.0000
2023-05-14T01:22:50.452Z,0.0000
2023-05-14T01:23:50.523Z,0.0000
2023-05-14T01:24:50.558Z,0.0000
2023-05-14T01:25:50.578Z,0.0000
2023-05-14T01:26:50.626Z,0.0000
2023-05-14T01:27:51.006Z,0.0000
2023-05-14T01:28:51.104Z,0.0000
2023-05-14T01:29:51.114Z,0.0000
2023-05-14T01:30:51.774Z,0.0000
2023-05-14T01:31:51.833Z,0.0000
2023-05-14T01:32:52.482Z,0.0000
2023-05-14T01:33:53.307Z,0.0000
2023-05-14T01:34:53.612Z,0.0000
2023-05-14T01:35:54.356Z,0.0000
2023-05-14T01:36:54.699Z,0.0000
2023-05-14T01:37:54.739Z,0.0000
2023-05-14T01:38:55.926Z,0.0000
2023-05-14T01:39:55.998Z,0.0000
2023-05-14T01:40:56.426Z,0.0000
2023-05-14T01:41:57.187Z,0.0000
2023-05-14T01:42:57.253Z,0.0000
2023-05-14T01:43:58.066Z,0.0000
2023-05-14T01:44:58.764Z,0.0000
2023-05-14T01:45:58.816Z,0.0000
2023-05-14T01:46:59.492Z,0.0000
2023-05-14T01:48:00.796Z,0.0000
2023-05-14T01:49:00.856Z,0.0000
2023-05-14T01:50:01.491Z,0.0000
2023-05-14T01:51:01.692Z,0.0000
2023-05-14T01:53:02.982Z,0.0000
2023-05-14T01:54:03.008Z,0.0000
2023-05-14T01:55:03.691Z,0.0000
2023-05-14T01:56:04.302Z,0.0000
2023-05-14T01:57:05.063Z,0.0000
2023-05-14T01:58:06.556Z,0.0000
2023-05-14T01:59:06.597Z,0.0000
2023-05-14T02:00:07.258Z,0.0000
2023-05-14T02:01:08.603Z,0.0000
2023-05-14T02:07:13.546Z,0.0000
2023-05-14T02:08:13.583Z,0.0000
2023-05-14T02:09:13.612Z,0.0000
2023-05-14T02:10:14.243Z,0.0000
2023-05-14T02:11:14.280Z,0.0000
2023-05-14T02:13:15.142Z,0.0000
2023-05-14T02:14:16.276Z,0.0000
2023-05-14T02:19:23.936Z,0.0000
2023-05-14T02:20:24.624Z,0.0000
2023-05-14T02:21:25.189Z,0.0000
2023-05-14T02:22:26.039Z,0.0000
2023-05-14T02:23:37.983Z,0.0000
2023-05-14T02:24:26.703Z,0.0000
2023-05-14T02:25:27.548Z,0.0000
2023-05-14T02:26:28.218Z,0.0000
2023-05-14T02:27:28.671Z,0.0000
2023-05-14T02:28:29.322Z,0.0000
2023-05-14T02:29:29.424Z,0.0000
2023-05-14T02:30:29.817Z,0.0000
2023-05-14T02:31:30.898Z,0.0000
2023-05-14T02:32:31.250Z,0.0000
2023-05-14T02:33:32.452Z,0.0000
2023-05-14T02:34:33.484Z,0.0000
2023-05-14T02:35:33.559Z,0.0000
2023-05-14T02:36:34.404Z,0.0000
2023-05-14T02:37:35.630Z,0.0000
2023-05-14T02:38:35.692Z,0.0000
2023-05-14T02:39:36.361Z,0.0000
2023-05-14T02:40:36.504Z,0.0000
2023-05-14T02:41:37.933Z,0.0000
2023-05-14T02:42:38.856Z,0.0000
2023-05-14T02:43:38.911Z,0.0000
2023-05-14T02:44:40.416Z,0.0000
2023-05-14T02:45:41.169Z,0.0000
2023-05-14T02:46:41.616Z,0.0000
2023-05-14T02:47:42.607Z,0.0000
2023-05-14T02:48:43.785Z,0.0000
2023-05-14T02:49:43.835Z,0.0000
2023-05-14T02:50:44.703Z,0.0000
2023-05-14T02:51:44.968Z,0.0000
2023-05-14T02:52:45.109Z,0.0000
2023-05-14T02:53:45.344Z,0.0000
2023-05-14T02:54:46.420Z,0.0000
2023-05-14T02:55:46.513Z,0.0000
2023-05-14T02:56:47.375Z,0.0000
2023-05-14T02:57:47.633Z,0.0000
2023-05-14T02:59:48.268Z,0.0000
2023-05-14T03:00:48.854Z,0.0000
2023-05-14T03:01:50.400Z,0.0000
2023-05-14T03:02:51.124Z,0.0000
2023-05-14T03:03:51.883Z,0.0000
2023-05-14T03:04:52.717Z,0.0000
2023-05-14T03:05:52.927Z,0.0000
2023-05-14T03:06:53.575Z,0.0000
2023-05-14T03:07:54.526Z,0.0000
2023-05-14T03:08:54.754Z,0.0000
2023-05-14T03:09:55.512Z,0.0000
2023-05-14T03:10:56.327Z,0.0000
2023-05-14T03:11:56.779Z,0.0000
2023-05-14T03:12:57.638Z,0.0000
2023-05-14T03:13:57.693Z,0.0000
2023-05-14T03:14:58.998Z,0.0000
2023-05-14T03:15:59.939Z,0.0000
2023-05-14T03:17:00.841Z,0.0000
2023-05-14T03:18:01.123Z,0.0000
2023-05-14T03:19:01.322Z,0.0000
2023-05-14T03:20:01.968Z,0.0000
2023-05-14T03:21:02.824Z,0.0000
2023-05-14T03:22:02.882Z,0.0000
2023-05-14T03:23:03.139Z,0.0000
2023-05-14T03:24:03.375Z,0.0000
2023-05-14T03:25:04.249Z,0.0000
2023-05-14T03:26:04.576Z,0.0000
2023-05-14T03:27:04.638Z,0.0000
2023-05-14T03:28:05.461Z,0.0000
2023-05-14T03:29:05.516Z,0.0000
2023-05-14T03:30:06.770Z,0.0000
2023-05-14T03:31:07.569Z,0.0000
2023-05-14T03:32:08.279Z,0.0000
2023-05-14T03:33:09.108Z,0.0000
2023-05-14T03:34:09.205Z,0.0000
2023-05-14T03:35:10.782Z,0.0000
2023-05-14T03:36:11.754Z,0.0000
2023-05-14T03:38:13.236Z,0.0000
2023-05-14T03:39:13.713Z,0.0000
2023-05-14T03:40:14.969Z,0.0000
2023-05-14T03:41:16.007Z,0.7670
2023-05-14T03:42:16.889Z,5.6250
2023-05-14T03:43:17.005Z,5.6250
2023-05-14T03:44:17.965Z,5.6250
2023-05-14T03:45:19.574Z,5.6250
2023-05-14T03:46:21.521Z,5.6250
2023-05-14T03:48:25.359Z,5.6250
2023-05-14T03:49:25.491Z,8.9489
2023-05-14T03:50:26.347Z,11.2500
2023-05-14T03:51:27.113Z,11.2500
2023-05-14T03:52:27.155Z,11.2500
2023-05-14T03:53:27.887Z,11.2500
2023-05-14T03:54:28.499Z,13.2955
2023-05-14T03:55:28.603Z,16.8750
2023-05-14T03:56:29.768Z,16.8750
2023-05-14T03:57:30.411Z,16.8750
2023-05-14T03:58:30.501Z,19.4318
2023-05-14T03:59:31.841Z,22.5000
2023-05-14T04:00:32.932Z,22.5000
2023-05-14T04:01:32.999Z,25.3125
2023-05-14T04:02:33.805Z,28.1250
2023-05-14T04:03:34.094Z,28.1250
2023-05-14T04:04:35.447Z,29.9148
2023-05-14T04:05:35.554Z,33.7500
2023-05-14T04:06:35.624Z,33.7500
2023-05-14T04:07:36.405Z,38.0966
2023-05-14T04:08:37.237Z,39.3750
2023-05-14T04:09:37.961Z,42.9545
2023-05-14T04:10:38.071Z,45.0000
2023-05-14T04:11:38.145Z,47.3011
2023-05-14T04:12:38.906Z,50.6250
2023-05-14T04:13:39.461Z,50.6250
2023-05-14T04:14:39.553Z,50.6250
2023-05-14T04:15:40.558Z,50.6250
2023-05-14T04:16:40.750Z,50.6250
2023-05-14T04:17:41.249Z,50.6250
2023-05-14T04:18:41.984Z,55.2273
2023-05-14T04:19:42.738Z,56.5057
2023-05-14T04:25:47.636Z,78.7500
2023-05-14T04:26:48.467Z,78.7500
2023-05-14T04:27:49.145Z,78.7500
2023-05-14T04:28:49.227Z,82.0739
2023-05-14T04:29:49.953Z,84.3750
2023-05-14T04:30:50.850Z,84.3750
2023-05-14T04:31:50.962Z,84.3750
2023-05-14T04:32:51.697Z,87.1875
2023-05-14T04:33:51.778Z,90.0000
2023-05-14T04:34:52.458Z,90.0000
2023-05-14T04:35:52.596Z,95.6250
2023-05-14T04:36:53.346Z,96.3920
2023-05-14T04:37:54.193Z,101.2500
2023-05-14T04:38:54.843Z,101.2500
2023-05-14T04:39:55.730Z,101.2500
2023-05-14T04:40:56.475Z,101.2500
2023-05-14T04:41:56.571Z,101.2500
2023-05-14T04:42:57.249Z,100.7386
2023-05-14T04:43:57.932Z,95.6250
2023-05-14T04:44:57.994Z,92.5568
2023-05-14T04:45:58.962Z,90.0000
2023-05-14T04:46:59.714Z,93.0682
2023-05-14T04:47:59.836Z,98.9489
2023-05-14T04:49:00.611Z,106.3636
2023-05-14T04:50:00.689Z,112.5000
2023-05-14T04:57:07.497Z,208.8587
2023-05-14T04:58:07.625Z,221.1648
2023-05-14T04:59:07.959Z,233.1818
2023-05-14T05:00:08.060Z,238.0398
2023-05-14T05:01:08.251Z,236.2500
2023-05-14T05:02:08.322Z,243.9205
2023-05-14T05:03:09.086Z,251.8466
2023-05-14T05:04:09.358Z,253.1250
2023-05-14T05:05:09.941Z,251.3352
2023-05-14T05:06:10.905Z,244.9432
2023-05-14T05:07:10.978Z,247.5000
2023-05-14T05:08:11.745Z,251.5909
2023-05-14T05:09:12.523Z,259.7727
2023-05-14T05:11:16.133Z,269.2663
2023-05-14T05:12:16.897Z,272.5568
2023-05-14T05:13:18.267Z,275.6250
2023-05-14T05:14:18.356Z,277.4148
2023-05-14T05:15:18.419Z,275.6250
2023-05-14T05:16:18.694Z,276.6477
2023-05-14T05:17:18.789Z,273.0682
2023-05-14T05:18:18.878Z,270.0000
2023-05-14T05:19:20.844Z,270.0000
2023-05-14T05:20:19.797Z,270.0000
2023-05-14T05:21:20.363Z,270.0000
2023-05-14T05:22:20.420Z,270.0000
2023-05-14T05:23:21.645Z,271.0227
2023-05-14T05:24:22.382Z,278.6932
2023-05-14T05:25:23.776Z,288.9204
2023-05-14T05:26:23.842Z,300.9375
2023-05-14T05:27:24.542Z,303.7500
2023-05-14T05:28:24.709Z,300.1704
2023-05-14T05:29:25.373Z,286.6193
2023-05-14T05:30:26.254Z,276.3921
2023-05-14T05:31:26.457Z,275.6250
2023-05-14T05:32:27.234Z,285.0852
2023-05-14T05:33:27.286Z,304.0057
2023-05-14T05:34:28.075Z,330.3409
2023-05-14T05:35:28.973Z,367.1591
2023-05-14T05:36:29.079Z,403.4659
2023-05-14T05:37:30.087Z,416.2500
2023-05-14T05:38:30.189Z,403.4659
2023-05-14T05:39:30.266Z,367.4148
2023-05-14T05:40:30.402Z,335.1989
2023-05-14T05:41:30.460Z,304.7727
2023-05-14T05:42:30.866Z,281.2500
2023-05-14T05:43:31.000Z,270.5114
2023-05-14T05:44:31.107Z,274.0909
2023-05-14T05:45:31.793Z,283.0398
2023-05-14T05:46:31.950Z,302.7273
2023-05-14T05:47:32.654Z,331.3636
2023-05-14T05:48:33.309Z,363.0682
2023-05-14T05:49:33.599Z,399.1193
2023-05-14T05:50:34.329Z,445.6534
2023-05-14T05:51:35.070Z,487.0739
2023-05-14T05:52:35.777Z,532.3295
2023-05-14T05:53:35.865Z,552.2727
2023-05-14T05:54:36.627Z,568.1250
2023-05-14T05:55:37.468Z,587.5568
2023-05-14T05:56:37.553Z,594.2045
2023-05-14T05:57:37.641Z,607.7557
2023-05-14T05:58:37.980Z,612.3580
2023-05-14T05:59:38.090Z,593.4375
2023-05-14T06:00:39.076Z,552.2727
2023-05-14T06:01:40.286Z,512.3864
2023-05-14T06:03:45.268Z,443.1522
2023-05-14T06:04:44.990Z,397.5000
2023-05-14T06:05:45.210Z,357.6989
2023-05-14T06:06:45.958Z,323.6932
2023-05-14T06:07:46.692Z,294.0341
2023-05-14T06:09:46.895Z,253.1250
2023-05-14T06:10:47.634Z,234.2045
2023-05-14T06:27:15.538Z,189.5380
2023-05-14T06:28:16.231Z,176.1648
2023-05-14T06:29:17.034Z,169.5170
2023-05-14T06:31:20.477Z,194.1848
2023-05-14T06:32:21.403Z,233.1818
2023-05-14T06:33:21.586Z,300.9375
2023-05-14T06:34:22.282Z,349.2614
2023-05-14T06:35:23.002Z,350.2841
2023-05-14T06:38:26.354Z,319.1576
2023-05-14T06:39:27.021Z,299.6591
2023-05-14T06:40:27.786Z,308.6079
2023-05-14T06:41:27.848Z,341.8466
2023-05-14T06:42:27.941Z,383.5227
2023-05-14T06:43:45.739Z,404.2329
2023-05-14T06:44:29.610Z,393.7500
2023-05-14T06:45:33.189Z,393.7500
2023-05-14T06:46:33.415Z,395.2841
2023-05-14T06:47:34.267Z,408.5796
2023-05-14T06:48:35.174Z,422.1307
2023-05-14T06:50:35.806Z,417.7841
2023-05-14T06:52:37.487Z,466.6193
2023-05-14T07:03:11.796Z,528.2609
2023-05-14T07:03:53.650Z,553.5000
2023-05-14T07:04:54.187Z,534.6307
2023-05-14T07:05:54.382Z,488.0966
2023-05-14T07:06:55.078Z,460.9943
2023-05-14T07:07:55.220Z,438.7500
2023-05-14T07:08:55.897Z,431.8466
2023-05-14T07:09:56.678Z,434.9148
2023-05-14T07:10:56.759Z,426.2216
2023-05-14T07:11:56.840Z,418.0398
2023-05-14T07:12:57.514Z,447.1875
2023-05-14T07:13:58.249Z,460.4829
2023-05-14T07:14:58.367Z,441.0511
2023-05-14T07:15:58.466Z,451.2784
2023-05-14T07:16:58.639Z,465.8523
2023-05-14T07:17:59.423Z,505.7386
2023-05-14T07:18:59.557Z,474.2898
2023-05-14T07:20:00.294Z,416.5057
2023-05-14T07:21:00.427Z,411.9034
2023-05-14T07:22:01.155Z,473.0114
2023-05-14T07:23:01.233Z,529.7727
2023-05-14T07:24:01.315Z,521.5909
2023-05-14T07:25:02.123Z,509.5739
2023-05-14T07:26:02.209Z,525.1705
2023-05-14T07:27:03.009Z,600.3409
2023-05-14T07:28:03.739Z,678.0682
2023-05-14T07:29:04.594Z,764.2330
2023-05-14T07:31:05.947Z,1086.6477
2023-05-14T07:32:06.034Z,1100.7102
2023-05-14T07:33:06.813Z,1263.0682
2023-05-14T07:34:07.707Z,1391.4204
2023-05-14T07:35:07.830Z,1279.4318
2023-05-14T07:36:08.546Z,1198.3807
2023-05-14T07:37:08.626Z,1197.1023
2023-05-14T07:38:09.422Z,1097.3864
2023-05-14T07:39:09.512Z,932.2159
2023-05-14T07:40:10.290Z,901.5341
2023-05-14T07:41:10.409Z,881.3352
2023-05-14T07:42:10.448Z,813.0682
2023-05-14T07:43:10.544Z,920.9659
2023-05-14T07:44:10.640Z,1179.9716
2023-05-14T07:45:10.932Z,1375.3125
2023-05-14T07:46:11.105Z,1407.2727
2023-05-14T07:47:11.704Z,1509.8011
2023-05-14T07:48:12.186Z,1504.1761
2023-05-14T07:49:13.092Z,1478.3523
2023-05-14T07:50:14.341Z,1709.2329
2023-05-14T07:51:16.186Z,1661.4204
2023-05-14T07:52:23.281Z,1965.1704
2023-05-14T08:00:28.678Z,1801.7898
2023-05-14T08:01:28.870Z,1076.1648
2023-05-14T08:02:29.016Z,1052.8977
2023-05-14T08:03:42.442Z,1146.4773
2023-05-14T08:04:31.708Z,1228.4375
2023-05-14T08:05:31.786Z,1349.2329
2023-05-14T08:06:32.517Z,1610.2841
2023-05-14T08:07:35.159Z,1825.3125
2023-05-14T08:08:35.259Z,1644.5454
2023-05-14T08:09:35.336Z,1283.5227
2023-05-14T08:10:36.187Z,1182.2727
2023-05-14T08:11:36.332Z,1238.2671
2023-05-14T08:12:36.444Z,1479.8864
2023-05-14T08:13:37.206Z,1771.8750
2023-05-14T08:14:38.063Z,1693.8921
2023-05-14T08:15:38.155Z,1561.9602
2023-05-14T08:16:38.887Z,1236.2216
2023-05-14T08:17:39.045Z,919.4318
2023-05-14T08:19:40.555Z,1042.1591
2023-05-14T08:20:40.640Z,1325.7102
2023-05-14T08:21:41.484Z,2022.9546
2023-05-14T08:22:41.578Z,2400.5967
2023-05-14T08:23:42.554Z,2229.2898
2023-05-14T08:24:42.654Z,2354.0625
2023-05-14T08:25:42.802Z,1933.2102
2023-05-14T08:26:42.866Z,1326.9886
2023-05-14T08:27:42.983Z,1124.2329
2023-05-14T08:28:43.931Z,1154.4034
2023-05-14T08:29:44.030Z,1216.7898
2023-05-14T08:30:44.801Z,1226.7614
2023-05-14T08:31:44.875Z,1281.4773
2023-05-14T08:32:45.579Z,1278.6648
2023-05-14T08:33:47.035Z,1305.0000
2023-05-14T08:34:48.510Z,1276.3636
2023-05-14T08:35:49.252Z,1218.8352
2023-05-14T08:36:53.667Z,1124.4886
2023-05-14T08:40:54.148Z,1155.9375
2023-05-14T08:41:55.161Z,1284.2898
2023-05-14T08:42:55.497Z,1294.2614
2023-05-14T08:43:56.504Z,1337.9829
2023-05-14T08:44:56.840Z,1436.6761
2023-05-14T08:45:57.664Z,1495.9943
2023-05-14T08:46:58.555Z,1586.5057
2023-05-14T08:47:59.656Z,1634.8296
2023-05-14T08:49:00.579Z,1686.9886
2023-05-14T08:50:01.559Z,1731.9886
2023-05-14T08:51:02.149Z,1849.3466
2023-05-14T08:52:03.603Z,2032.0312
2023-05-14T08:53:03.748Z,2206.0227
2023-05-14T08:54:05.585Z,2032.1591
2023-05-14T08:55:06.607Z,1888.4659
2023-05-14T08:56:07.013Z,1840.9091
2023-05-14T08:57:07.157Z,1858.5511
2023-05-14T08:58:20.974Z,1915.3125
2023-05-14T08:59:21.082Z,2040.3409
2023-05-14T09:00:21.316Z,2214.9717
2023-05-14T09:01:21.734Z,3908.3523
2023-05-14T09:02:22.847Z,2738.3523
2023-05-14T09:03:23.349Z,4037.9829
2023-05-14T09:04:23.544Z,5012.3862
2023-05-14T09:05:24.482Z,5194.4316
2023-05-14T09:06:24.765Z,4794.0342
2023-05-14T09:07:25.273Z,4264.7729
2023-05-14T09:08:28.866Z,3567.5283
2023-05-14T09:13:32.857Z,2416.1931
2023-05-14T09:14:33.006Z,4302.3579
2023-05-14T09:15:33.964Z,2142.3579
2023-05-14T09:16:34.747Z,1648.6364
2023-05-14T09:17:35.426Z,1587.7841
2023-05-14T09:18:36.223Z,1500.3409
2023-05-14T09:19:36.327Z,1359.7159
2023-05-14T09:20:37.074Z,1303.7216
2023-05-14T09:21:37.203Z,1385.7954
2023-05-14T09:22:58.334Z,1515.4261
2023-05-14T09:23:40.532Z,1465.5000
2023-05-14T09:24:41.022Z,1337.4716
2023-05-14T09:25:41.869Z,1305.7671
2023-05-14T09:26:41.994Z,1468.6364
2023-05-14T09:27:42.118Z,1376.5909
2023-05-14T09:28:42.236Z,1236.7329
2023-05-14T09:29:42.406Z,1239.0341
2023-05-14T09:30:42.558Z,1222.1591
2023-05-14T09:31:43.501Z,1114.2614
2023-05-14T09:32:44.399Z,1037.0454
2023-05-14T09:33:44.889Z,1018.6364
2023-05-14T09:34:45.466Z,1031.6761
2023-05-14T09:35:45.661Z,1120.3977
2023-05-14T09:36:46.378Z,1234.1761
2023-05-14T09:37:46.673Z,1290.6818
2023-05-14T09:38:46.935Z,1405.2273
2023-05-14T09:39:47.831Z,1441.7898
2023-05-14T09:40:48.181Z,1443.8352
2023-05-14T09:41:48.302Z,1703.8636
2023-05-14T09:42:48.990Z,1881.0511
2023-05-14T09:43:49.922Z,1727.6421
2023-05-14T09:45:50.709Z,2037.2727
2023-05-14T09:46:51.458Z,1883.8636
2023-05-14T09:48:51.962Z,2408.7783
2023-05-14T09:49:52.095Z,2233.1250
2023-05-14T09:50:52.426Z,2739.3750
2023-05-14T09:51:53.299Z,2605.9092
2023-05-14T09:52:54.120Z,2187.3579
2023-05-14T09:53:54.466Z,2228.5227
2023-05-14T09:54:55.454Z,2177.6421
2023-05-14T09:55:55.663Z,1857.2727
2023-05-14T09:56:55.962Z,1629.9716
2023-05-14T09:57:57.150Z,1640.4546
2023-05-14T09:58:57.274Z,1786.1932
2023-05-14T09:59:57.453Z,1761.1364
2023-05-14T10:00:57.711Z,1704.1193
2023-05-14T10:01:57.884Z,1637.6421
2023-05-14T10:02:58.023Z,1516.9602
2023-05-14T10:04:02.562Z,1430.0284
2023-05-14T10:10:08.921Z,1127.6902
2023-05-14T10:11:09.047Z,1083.8352
2023-05-14T10:12:09.696Z,1178.9489
2023-05-14T10:13:10.263Z,1435.1421
2023-05-14T10:14:11.596Z,1577.3011
2023-05-14T10:15:12.328Z,1533.3239
2023-05-14T10:16:12.927Z,1379.6591
2023-05-14T10:17:13.188Z,1353.0682
2023-05-14T10:18:13.355Z,1487.3011
2023-05-14T10:19:14.020Z,1613.8636
2023-05-14T10:20:14.177Z,1742.4716
2023-05-14T10:21:14.287Z,1764.4602
2023-05-14T10:22:14.959Z,1655.2841
2023-05-14T10:23:16.284Z,1577.3011
2023-05-14T10:24:16.440Z,1707.6989
2023-05-14T10:25:16.561Z,1785.6818
2023-05-14T10:26:17.596Z,1866.2216
2023-05-14T10:27:17.736Z,1735.3125
2023-05-14T10:28:17.900Z,1730.1989
2023-05-14T10:29:18.054Z,1737.3579
2023-05-14T10:30:18.200Z,1799.2329
2023-05-14T10:31:18.414Z,1800.2557
2023-05-14T10:32:18.621Z,1712.3011
2023-05-14T10:33:18.868Z,1652.4716
2023-05-14T10:34:19.056Z,1644.5454
2023-05-14T10:35:20.009Z,1661.6761
2023-05-14T10:36:20.136Z,1646.5909
2023-05-14T10:37:20.673Z,1643.5227
2023-05-14T10:38:20.771Z,1665.0000
2023-05-14T10:39:21.869Z,1720.9943
2023-05-14T10:40:22.927Z,1779.0341
2023-05-14T10:41:23.382Z,1853.6932
2023-05-14T10:42:23.561Z,1875.4261
2023-05-14T10:43:23.638Z,1852.4148
2023-05-14T10:44:23.872Z,1879.5171
2023-05-14T10:45:24.421Z,1836.3068
2023-05-14T10:46:24.655Z,1936.5341
2023-05-14T10:47:24.794Z,1838.3523
2023-05-14T10:48:25.080Z,1890.5114
2023-05-14T10:49:39.718Z,1903.0398
2023-05-14T10:50:26.972Z,1915.3125
2023-05-14T10:51:27.786Z,1936.5341
2023-05-14T10:52:27.914Z,1934.2329
2023-05-14T10:53:28.015Z,1943.6932
2023-05-14T10:54:29.126Z,1942.1591
2023-05-14T10:55:29.316Z,1974.3750
2023-05-14T10:56:29.434Z,1956.9886
2023-05-14T10:57:30.260Z,1925.0284
2023-05-14T10:58:30.420Z,2003.0114
2023-05-14T10:59:31.190Z,1996.6193
2023-05-14T11:00:31.359Z,2042.3864
2023-05-14T11:01:31.494Z,1830.4261
2023-05-14T11:02:32.263Z,1793.3523
2023-05-14T11:03:33.125Z,2618.1819
2023-05-14T11:04:33.425Z,4613.7783
2023-05-14T11:05:33.541Z,3455.5398
2023-05-14T11:06:33.682Z,4189.3467
2023-05-14T11:07:33.787Z,3969.7158
2023-05-14T11:08:33.948Z,4680.2559
2023-05-14T11:09:34.685Z,5180.1138
2023-05-14T11:10:34.889Z,4724.2329
2023-05-14T11:11:35.716Z,4610.7104
2023-05-14T11:12:35.871Z,3727.8408
2023-05-14T11:13:36.002Z,2889.4602
2023-05-14T11:14:36.140Z,3372.6990
2023-05-14T11:15:36.344Z,2139.5454
2023-05-14T11:16:37.185Z,1741.7046
2023-05-14T11:17:37.405Z,1504.4318
2023-05-14T11:18:38.274Z,1292.2159
2023-05-14T11:19:38.395Z,1117.8409
2023-05-14T11:20:38.520Z,941.6761
2023-05-14T11:21:39.527Z,772.9261
2023-05-14T11:22:39.681Z,670.1420
2023-05-14T11:23:40.003Z,655.8239
2023-05-14T11:24:40.191Z,667.0739
2023-05-14T11:25:40.803Z,677.0455
2023-05-14T11:26:41.011Z,692.6420
2023-05-14T11:27:41.813Z,712.3295
2023-05-14T11:28:41.949Z,736.6193
2023-05-14T11:29:42.734Z,764.4886
2023-05-14T11:30:43.755Z,789.0341
2023-05-14T11:33:48.005Z,859.6467
2023-05-14T11:34:48.147Z,911.2500
2023-05-14T11:35:48.302Z,954.7159
2023-05-14T11:36:48.454Z,983.6080
2023-05-14T11:37:50.898Z,1010.4545
2023-05-14T11:38:51.054Z,1054.4318
2023-05-14T11:39:58.359Z,1117.5852
2023-05-14T11:42:10.508Z,1267.5815
2023-05-14T11:42:59.144Z,1310.9559
2023-05-14T11:43:59.992Z,1296.5625
2023-05-14T11:45:00.755Z,1254.3750
2023-05-14T11:46:00.960Z,1221.1364
2023-05-14T11:47:01.793Z,1164.8864
2023-05-14T11:48:01.946Z,1097.3864
2023-05-14T11:49:02.723Z,1086.1364
2023-05-14T11:50:19.972Z,1050.0852
2023-05-14T11:51:42.306Z,957.6562
2023-05-14T11:52:43.341Z,934.7727
2023-05-14T11:53:44.797Z,964.9432
2023-05-14T11:54:45.334Z,1039.6023
2023-05-14T11:55:45.674Z,1143.4091
2023-05-14T11:57:03.262Z,1261.5341
2023-05-14T11:57:47.835Z,1411.5234
2023-05-14T11:58:48.623Z,1526.1648
2023-05-14T11:59:48.767Z,1634.3182
2023-05-14T12:00:50.053Z,1718.6932
2023-05-14T12:01:50.993Z,1772.6421
2023-05-14T12:02:51.214Z,1785.4261
2023-05-14T12:03:52.325Z,1763.4375
2023-05-14T12:04:53.831Z,1609.5171
2023-05-14T12:05:54.602Z,1284.5454
2023-05-14T12:06:54.948Z,896.6761
2023-05-14T12:07:55.496Z,579.6307
2023-05-14T12:08:55.948Z,403.4659
2023-05-14T12:09:56.169Z,312.9546
2023-05-14T12:10:56.447Z,272.8125
2023-05-14T12:11:56.906Z,252.1023
2023-05-14T12:12:57.314Z,232.4148
2023-05-14T12:13:57.709Z,209.9148
2023-05-14T12:14:58.050Z,204.5455
2023-05-14T12:15:58.262Z,216.3068
2023-05-14T12:16:58.645Z,235.7386
2023-05-14T12:18:59.550Z,235.4830
2023-05-14T12:19:59.737Z,227.8125
2023-05-14T12:21:01.497Z,216.8182
2023-05-14T12:22:02.291Z,217.3295
2023-05-14T12:23:02.406Z,240.0852
2023-05-14T12:24:03.345Z,263.0966
2023-05-14T12:25:04.377Z,294.8011
2023-05-14T12:26:04.572Z,325.9943
2023-05-14T12:27:05.635Z,350.2841
2023-05-14T12:28:05.979Z,375.5966
2023-05-14T12:29:06.331Z,410.1136
2023-05-14T12:31:07.389Z,471.6964
2023-05-14T12:32:08.842Z,483.7500
2023-05-14T12:33:09.710Z,485.7954
2023-05-14T12:34:09.856Z,490.1421
2023-05-14T12:35:10.631Z,489.8864
2023-05-14T12:36:21.188Z,481.7046
2023-05-14T12:37:13.912Z,478.6875
2023-05-14T12:38:15.020Z,483.4943
2023-05-14T12:39:15.466Z,483.7500
2023-05-14T12:40:15.625Z,485.7954
2023-05-14T12:41:15.960Z,494.4886
2023-05-14T12:42:17.652Z,508.5511
2023-05-14T12:43:17.818Z,536.1648
2023-05-14T12:44:17.951Z,587.0455
2023-05-14T12:45:18.068Z,629.7443
2023-05-14T12:46:18.193Z,675.7670
2023-05-14T12:47:18.423Z,725.8807
2023-05-14T12:48:18.574Z,771.1364
2023-05-14T12:49:18.728Z,813.0682
2023-05-14T12:50:19.496Z,845.7955
2023-05-14T12:52:36.124Z,900.5114
2023-05-14T12:53:24.047Z,916.5938
2023-05-14T13:03:38.265Z,702.1023
2023-05-14T13:04:38.659Z,691.6193
2023-05-14T13:05:41.422Z,692.8977
2023-05-14T13:09:44.265Z,793.6364
2023-05-14T13:10:44.421Z,820.9943
2023-05-14T13:11:44.563Z,849.3750
2023-05-14T13:12:44.692Z,879.5455
2023-05-14T13:13:44.834Z,916.1080
2023-05-14T13:14:44.982Z,951.3920
2023-05-14T13:15:45.182Z,1000.2273
2023-05-14T13:16:45.408Z,1058.2671
2023-05-14T13:17:45.682Z,1111.9602
2023-05-14T13:18:45.846Z,1171.7898
2023-05-14T13:19:45.968Z,1224.9716
2023-05-14T13:20:46.127Z,1278.6648
2023-05-14T13:21:46.272Z,1323.4091
2023-05-14T13:22:46.392Z,1358.4375
2023-05-14T13:23:46.532Z,1380.1704
2023-05-14T13:24:46.887Z,1401.6477
2023-05-14T13:25:49.671Z,1418.2671
2023-05-14T13:26:47.351Z,1434.1072
2023-05-14T13:27:47.503Z,1458.4091
2023-05-14T13:28:47.703Z,1486.0227
2023-05-14T13:30:49.049Z,1569.1193
2023-05-14T13:31:49.181Z,1615.6534
2023-05-14T13:33:50.168Z,1723.5511
2023-05-14T13:34:50.338Z,1761.9034
2023-05-14T13:35:51.288Z,1809.4602
2023-05-14T13:36:52.471Z,1836.0511
2023-05-14T13:37:53.973Z,1835.0284
2023-05-14T13:38:55.594Z,1821.2216
2023-05-14T13:39:56.012Z,1826.0796
2023-05-14T13:40:56.389Z,1803.5796
2023-05-14T13:41:56.598Z,1802.0454
2023-05-14T13:42:57.525Z,1822.5000
2023-05-14T13:43:58.308Z,1837.3296